Airport Name : Concepcion

Other Name : Concepcion

ICAO : SLCP

IATA : CEP

FAA :

Latitude : -16.088

Longitude : -62.013

Country : Bolivia

Local Date and Time : 29 Nov 2020 12:18

 

TAF (Terminal Aerodrome Forecast)

 

METAR (METeorological Aerodrome Report)

SLCP 291600Z 36004KT 9999 BKN017 30/23 Q1016

SLCP 291500Z 34006KT 9999 SCT017 30/23 Q1017

SLCP 291400Z 33008KT 9999 FEW015 30/23 Q1017

SLCP 291300Z 36004KT 9999 FEW013 SCT200 28/24 Q1017

To Charter a Jet Click here.